sensor_id;sensor_type;location;lat;lon;timestamp;P1;P2;P0
78063;PMS5003;67429;51.596;-3.264;2023-02-19T00:00:36;3;3;
78063;PMS5003;67429;51.596;-3.264;2023-02-19T00:03:01;1;1;
78063;PMS5003;67429;51.596;-3.264;2023-02-19T00:05:27;3;3;
78063;PMS5003;67429;51.596;-3.264;2023-02-19T00:07:53;3;2;
78063;PMS5003;67429;51.596;-3.264;2023-02-19T00:10:18;2;2;
78063;PMS5003;67429;51.596;-3.264;2023-02-19T00:12:44;3;3;
78063;PMS5003;67429;51.596;-3.264;2023-02-19T00:15:10;1;1;
78063;PMS5003;67429;51.596;-3.264;2023-02-19T00:17:35;2;2;
78063;PMS5003;67429;51.596;-3.264;2023-02-19T00:20:01;4;4;
78063;PMS5003;67429;51.596;-3.264;2023-02-19T00:22:27;4;2;
78063;PMS5003;67429;51.596;-3.264;2023-02-19T00:24:52;2;2;
78063;PMS5003;67429;51.596;-3.264;2023-02-19T00:27:18;3;3;
78063;PMS5003;67429;51.596;-3.264;2023-02-19T00:29:44;3;2;
78063;PMS5003;67429;51.596;-3.264;2023-02-19T00:32:09;2;2;
78063;PMS5003;67429;51.596;-3.264;2023-02-19T00:34:35;4;3;
78063;PMS5003;67429;51.596;-3.264;2023-02-19T00:37:01;3;3;
78063;PMS5003;67429;51.596;-3.264;2023-02-19T00:39:26;3;2;
78063;PMS5003;67429;51.596;-3.264;2023-02-19T00:41:52;2;2;
78063;PMS5003;67429;51.596;-3.264;2023-02-19T00:44:18;3;2;
78063;PMS5003;67429;51.596;-3.264;2023-02-19T00:46:44;5;5;
78063;PMS5003;67429;51.596;-3.264;2023-02-19T00:49:12;2;2;
78063;PMS5003;67429;51.596;-3.264;2023-02-19T00:51:35;2;2;
78063;PMS5003;67429;51.596;-3.264;2023-02-19T00:54:00;5;4;
78063;PMS5003;67429;51.596;-3.264;2023-02-19T00:56:26;5;4;
78063;PMS5003;67429;51.596;-3.264;2023-02-19T00:58:51;4;3;
78063;PMS5003;67429;51.596;-3.264;2023-02-19T01:01:17;2;2;
78063;PMS5003;67429;51.596;-3.264;2023-02-19T01:03:43;2;2;
78063;PMS5003;67429;51.596;-3.264;2023-02-19T01:06:09;3;3;
78063;PMS5003;67429;51.596;-3.264;2023-02-19T01:08:34;2;2;
78063;PMS5003;67429;51.596;-3.264;2023-02-19T01:11:00;2;1;
78063;PMS5003;67429;51.596;-3.264;2023-02-19T01:13:25;4;3;
78063;PMS5003;67429;51.596;-3.264;2023-02-19T01:15:51;1;1;
78063;PMS5003;67429;51.596;-3.264;2023-02-19T01:18:17;4;4;
78063;PMS5003;67429;51.596;-3.264;2023-02-19T01:20:43;3;2;
78063;PMS5003;67429;51.596;-3.264;2023-02-19T01:23:08;3;3;
78063;PMS5003;67429;51.596;-3.264;2023-02-19T01:25:34;2;2;
78063;PMS5003;67429;51.596;-3.264;2023-02-19T01:27:59;5;3;
78063;PMS5003;67429;51.596;-3.264;2023-02-19T01:30:25;4;3;
78063;PMS5003;67429;51.596;-3.264;2023-02-19T01:32:51;5;4;
78063;PMS5003;67429;51.596;-3.264;2023-02-19T01:35:16;3;2;
78063;PMS5003;67429;51.596;-3.264;2023-02-19T01:37:42;2;2;
78063;PMS5003;67429;51.596;-3.264;2023-02-19T01:40:08;3;2;
78063;PMS5003;67429;51.596;-3.264;2023-02-19T01:42:33;3;2;
78063;PMS5003;67429;51.596;-3.264;2023-02-19T01:47:25;3;3;
78063;PMS5003;67429;51.596;-3.264;2023-02-19T01:49:51;3;3;
78063;PMS5003;67429;51.596;-3.264;2023-02-19T01:52:17;4;4;
78063;PMS5003;67429;51.596;-3.264;2023-02-19T01:54:42;2;2;
78063;PMS5003;67429;51.596;-3.264;2023-02-19T01:57:09;3;2;
78063;PMS5003;67429;51.596;-3.264;2023-02-19T01:59:33;2;2;
78063;PMS5003;67429;51.596;-3.264;2023-02-19T02:01:59;4;4;
78063;PMS5003;67429;51.596;-3.264;2023-02-19T02:04:24;3;2;
78063;PMS5003;67429;51.596;-3.264;2023-02-19T02:06:51;3;3;
78063;PMS5003;67429;51.596;-3.264;2023-02-19T02:09:16;3;2;
78063;PMS5003;67429;51.596;-3.264;2023-02-19T02:11:43;3;3;
78063;PMS5003;67429;51.596;-3.264;2023-02-19T02:14:07;2;2;
78063;PMS5003;67429;51.596;-3.264;2023-02-19T02:16:33;2;2;
78063;PMS5003;67429;51.596;-3.264;2023-02-19T02:19:00;2;2;
78063;PMS5003;67429;51.596;-3.264;2023-02-19T02:23:53;2;2;
78063;PMS5003;67429;51.596;-3.264;2023-02-19T02:31:07;2;2;
78063;PMS5003;67429;51.596;-3.264;2023-02-19T02:33:35;3;2;
78063;PMS5003;67429;51.596;-3.264;2023-02-19T02:35:59;3;3;
78063;PMS5003;67429;51.596;-3.264;2023-02-19T02:38:24;2;2;
78063;PMS5003;67429;51.596;-3.264;2023-02-19T02:40:49;3;2;
78063;PMS5003;67429;51.596;-3.264;2023-02-19T02:43:14;6;4;
78063;PMS5003;67429;51.596;-3.264;2023-02-19T02:45:40;4;3;
78063;PMS5003;67429;51.596;-3.264;2023-02-19T02:48:13;3;3;
78063;PMS5003;67429;51.596;-3.264;2023-02-19T02:50:33;2;2;
78063;PMS5003;67429;51.596;-3.264;2023-02-19T02:52:57;2;2;
78063;PMS5003;67429;51.596;-3.264;2023-02-19T02:55:23;4;4;
78063;PMS5003;67429;51.596;-3.264;2023-02-19T02:57:48;4;2;
78063;PMS5003;67429;51.596;-3.264;2023-02-19T03:00:14;3;3;
78063;PMS5003;67429;51.596;-3.264;2023-02-19T03:02:40;2;2;
78063;PMS5003;67429;51.596;-3.264;2023-02-19T03:05:06;4;3;
78063;PMS5003;67429;51.596;-3.264;2023-02-19T03:07:32;3;3;
78063;PMS5003;67429;51.596;-3.264;2023-02-19T03:09:56;4;3;
78063;PMS5003;67429;51.596;-3.264;2023-02-19T03:12:22;4;2;
78063;PMS5003;67429;51.596;-3.264;2023-02-19T03:14:50;1;1;
78063;PMS5003;67429;51.596;-3.264;2023-02-19T03:17:14;3;3;
78063;PMS5003;67429;51.596;-3.264;2023-02-19T03:19:40;3;3;
78063;PMS5003;67429;51.596;-3.264;2023-02-19T03:22:05;4;3;
78063;PMS5003;67429;51.596;-3.264;2023-02-19T03:24:31;2;1;
78063;PMS5003;67429;51.596;-3.264;2023-02-19T03:26:56;2;2;
78063;PMS5003;67429;51.596;-3.264;2023-02-19T03:29:22;2;2;
78063;PMS5003;67429;51.596;-3.264;2023-02-19T03:31:47;3;3;
78063;PMS5003;67429;51.596;-3.264;2023-02-19T03:34:13;3;2;
78063;PMS5003;67429;51.596;-3.264;2023-02-19T03:36:39;3;2;
78063;PMS5003;67429;51.596;-3.264;2023-02-19T03:39:05;3;3;
78063;PMS5003;67429;51.596;-3.264;2023-02-19T03:41:31;2;2;
78063;PMS5003;67429;51.596;-3.264;2023-02-19T03:43:56;2;2;
78063;PMS5003;67429;51.596;-3.264;2023-02-19T03:46:22;1;1;
78063;PMS5003;67429;51.596;-3.264;2023-02-19T03:48:48;3;2;
78063;PMS5003;67429;51.596;-3.264;2023-02-19T03:51:19;3;2;
78063;PMS5003;67429;51.596;-3.264;2023-02-19T03:53:41;3;3;
78063;PMS5003;67429;51.596;-3.264;2023-02-19T03:56:05;2;2;
78063;PMS5003;67429;51.596;-3.264;2023-02-19T03:58:30;2;2;
78063;PMS5003;67429;51.596;-3.264;2023-02-19T04:00:56;3;2;
78063;PMS5003;67429;51.596;-3.264;2023-02-19T04:03:22;4;3;
78063;PMS5003;67429;51.596;-3.264;2023-02-19T04:05:47;2;1;
78063;PMS5003;67429;51.596;-3.264;2023-02-19T04:08:13;3;2;
78063;PMS5003;67429;51.596;-3.264;2023-02-19T04:10:38;3;2;
78063;PMS5003;67429;51.596;-3.264;2023-02-19T04:13:05;3;3;
78063;PMS5003;67429;51.596;-3.264;2023-02-19T04:15:30;3;3;
78063;PMS5003;67429;51.596;-3.264;2023-02-19T04:17:56;2;2;
78063;PMS5003;67429;51.596;-3.264;2023-02-19T04:20:20;4;3;
78063;PMS5003;67429;51.596;-3.264;2023-02-19T04:22:46;1;1;
78063;PMS5003;67429;51.596;-3.264;2023-02-19T04:25:12;1;1;
78063;PMS5003;67429;51.596;-3.264;2023-02-19T04:27:38;4;4;
78063;PMS5003;67429;51.596;-3.264;2023-02-19T04:30:03;2;2;
78063;PMS5003;67429;51.596;-3.264;2023-02-19T04:32:29;3;2;
78063;PMS5003;67429;51.596;-3.264;2023-02-19T04:34:54;3;2;
78063;PMS5003;67429;51.596;-3.264;2023-02-19T04:37:20;3;3;
78063;PMS5003;67429;51.596;-3.264;2023-02-19T04:39:46;2;2;
78063;PMS5003;67429;51.596;-3.264;2023-02-19T04:42:11;3;2;
78063;PMS5003;67429;51.596;-3.264;2023-02-19T04:44:37;2;2;
78063;PMS5003;67429;51.596;-3.264;2023-02-19T04:47:03;2;2;
78063;PMS5003;67429;51.596;-3.264;2023-02-19T04:49:28;2;2;
78063;PMS5003;67429;51.596;-3.264;2023-02-19T04:51:54;3;3;
78063;PMS5003;67429;51.596;-3.264;2023-02-19T04:54:20;2;2;
78063;PMS5003;67429;51.596;-3.264;2023-02-19T04:56:45;3;3;
78063;PMS5003;67429;51.596;-3.264;2023-02-19T04:59:16;2;1;
78063;PMS5003;67429;51.596;-3.264;2023-02-19T05:01:37;2;2;
78063;PMS5003;67429;51.596;-3.264;2023-02-19T05:04:02;2;2;
78063;PMS5003;67429;51.596;-3.264;2023-02-19T05:06:28;3;2;
78063;PMS5003;67429;51.596;-3.264;2023-02-19T05:08:54;2;2;
78063;PMS5003;67429;51.596;-3.264;2023-02-19T05:11:19;4;4;
78063;PMS5003;67429;51.596;-3.264;2023-02-19T05:13:44;4;3;
78063;PMS5003;67429;51.596;-3.264;2023-02-19T05:16:10;7;5;
78063;PMS5003;67429;51.596;-3.264;2023-02-19T05:18:35;3;3;
78063;PMS5003;67429;51.596;-3.264;2023-02-19T05:21:01;5;4;
78063;PMS5003;67429;51.596;-3.264;2023-02-19T05:23:27;4;4;
78063;PMS5003;67429;51.596;-3.264;2023-02-19T05:25:53;2;2;
78063;PMS5003;67429;51.596;-3.264;2023-02-19T05:28:18;3;2;
78063;PMS5003;67429;51.596;-3.264;2023-02-19T05:30:44;2;2;
78063;PMS5003;67429;51.596;-3.264;2023-02-19T05:33:10;3;2;
78063;PMS5003;67429;51.596;-3.264;2023-02-19T05:35:39;3;3;
78063;PMS5003;67429;51.596;-3.264;2023-02-19T05:38:01;4;4;
78063;PMS5003;67429;51.596;-3.264;2023-02-19T05:40:26;3;3;
78063;PMS5003;67429;51.596;-3.264;2023-02-19T05:42:52;2;2;
78063;PMS5003;67429;51.596;-3.264;2023-02-19T05:45:18;6;4;
78063;PMS5003;67429;51.596;-3.264;2023-02-19T05:47:44;5;5;
78063;PMS5003;67429;51.596;-3.264;2023-02-19T05:50:09;4;3;
78063;PMS5003;67429;51.596;-3.264;2023-02-19T05:52:35;1;1;
78063;PMS5003;67429;51.596;-3.264;2023-02-19T05:55:01;4;3;
78063;PMS5003;67429;51.596;-3.264;2023-02-19T05:57:26;4;4;
78063;PMS5003;67429;51.596;-3.264;2023-02-19T05:59:52;4;3;
78063;PMS5003;67429;51.596;-3.264;2023-02-19T06:02:18;4;4;
78063;PMS5003;67429;51.596;-3.264;2023-02-19T06:04:43;4;3;
78063;PMS5003;67429;51.596;-3.264;2023-02-19T06:07:09;3;2;
78063;PMS5003;67429;51.596;-3.264;2023-02-19T06:09:35;4;4;
78063;PMS5003;67429;51.596;-3.264;2023-02-19T06:12:00;2;1;
78063;PMS5003;67429;51.596;-3.264;2023-02-19T06:14:26;2;2;
78063;PMS5003;67429;51.596;-3.264;2023-02-19T06:16:52;2;2;
78063;PMS5003;67429;51.596;-3.264;2023-02-19T06:19:17;2;2;
78063;PMS5003;67429;51.596;-3.264;2023-02-19T06:21:43;1;1;
78063;PMS5003;67429;51.596;-3.264;2023-02-19T06:24:08;1;1;
78063;PMS5003;67429;51.596;-3.264;2023-02-19T06:26:34;2;2;
78063;PMS5003;67429;51.596;-3.264;2023-02-19T06:28:59;1;1;
78063;PMS5003;67429;51.596;-3.264;2023-02-19T06:31:25;1;1;
78063;PMS5003;67429;51.596;-3.264;2023-02-19T06:33:51;2;1;
78063;PMS5003;67429;51.596;-3.264;2023-02-19T06:36:17;1;1;
78063;PMS5003;67429;51.596;-3.264;2023-02-19T06:38:42;2;2;
78063;PMS5003;67429;51.596;-3.264;2023-02-19T06:41:08;2;2;
78063;PMS5003;67429;51.596;-3.264;2023-02-19T06:43:33;1;1;
78063;PMS5003;67429;51.596;-3.264;2023-02-19T06:46:00;0;0;
78063;PMS5003;67429;51.596;-3.264;2023-02-19T06:48:25;1;1;
78063;PMS5003;67429;51.596;-3.264;2023-02-19T06:50:50;1;1;
78063;PMS5003;67429;51.596;-3.264;2023-02-19T06:53:16;2;2;
78063;PMS5003;67429;51.596;-3.264;2023-02-19T06:55:42;2;2;
78063;PMS5003;67429;51.596;-3.264;2023-02-19T06:58:07;1;1;
78063;PMS5003;67429;51.596;-3.264;2023-02-19T07:00:33;1;1;
78063;PMS5003;67429;51.596;-3.264;2023-02-19T07:02:59;1;1;
78063;PMS5003;67429;51.596;-3.264;2023-02-19T07:05:25;1;1;
78063;PMS5003;67429;51.596;-3.264;2023-02-19T07:07:50;2;2;
78063;PMS5003;67429;51.596;-3.264;2023-02-19T07:10:16;2;2;
78063;PMS5003;67429;51.596;-3.264;2023-02-19T07:12:42;2;1;
78063;PMS5003;67429;51.596;-3.264;2023-02-19T07:15:07;2;2;
78063;PMS5003;67429;51.596;-3.264;2023-02-19T07:17:33;1;1;
78063;PMS5003;67429;51.596;-3.264;2023-02-19T07:19:59;2;1;
78063;PMS5003;67429;51.596;-3.264;2023-02-19T07:22:24;2;2;
78063;PMS5003;67429;51.596;-3.264;2023-02-19T07:24:50;1;1;
78063;PMS5003;67429;51.596;-3.264;2023-02-19T07:27:15;1;1;
78063;PMS5003;67429;51.596;-3.264;2023-02-19T07:29:41;4;4;
78063;PMS5003;67429;51.596;-3.264;2023-02-19T07:32:07;3;3;
78063;PMS5003;67429;51.596;-3.264;2023-02-19T07:34:33;3;2;
78063;PMS5003;67429;51.596;-3.264;2023-02-19T07:36:58;3;3;
78063;PMS5003;67429;51.596;-3.264;2023-02-19T07:39:24;2;2;
78063;PMS5003;67429;51.596;-3.264;2023-02-19T07:41:50;2;2;
78063;PMS5003;67429;51.596;-3.264;2023-02-19T07:44:16;3;3;
78063;PMS5003;67429;51.596;-3.264;2023-02-19T07:46:41;5;4;
78063;PMS5003;67429;51.596;-3.264;2023-02-19T07:49:07;5;4;
78063;PMS5003;67429;51.596;-3.264;2023-02-19T07:51:32;5;3;
78063;PMS5003;67429;51.596;-3.264;2023-02-19T07:53:58;4;4;
78063;PMS5003;67429;51.596;-3.264;2023-02-19T07:56:23;5;3;
78063;PMS5003;67429;51.596;-3.264;2023-02-19T07:58:49;5;4;
78063;PMS5003;67429;51.596;-3.264;2023-02-19T08:01:15;2;2;
78063;PMS5003;67429;51.596;-3.264;2023-02-19T08:03:40;3;3;
78063;PMS5003;67429;51.596;-3.264;2023-02-19T08:06:06;5;5;
78063;PMS5003;67429;51.596;-3.264;2023-02-19T08:08:32;4;4;
78063;PMS5003;67429;51.596;-3.264;2023-02-19T08:10:59;7;7;
78063;PMS5003;67429;51.596;-3.264;2023-02-19T08:13:23;3;3;
78063;PMS5003;67429;51.596;-3.264;2023-02-19T08:15:49;3;3;
78063;PMS5003;67429;51.596;-3.264;2023-02-19T08:18:15;3;3;
78063;PMS5003;67429;51.596;-3.264;2023-02-19T08:20:40;5;4;
78063;PMS5003;67429;51.596;-3.264;2023-02-19T08:23:06;3;3;
78063;PMS5003;67429;51.596;-3.264;2023-02-19T08:25:32;10;6;
78063;PMS5003;67429;51.596;-3.264;2023-02-19T08:27:57;4;3;
78063;PMS5003;67429;51.596;-3.264;2023-02-19T08:30:23;5;5;
78063;PMS5003;67429;51.596;-3.264;2023-02-19T08:32:48;4;4;
78063;PMS5003;67429;51.596;-3.264;2023-02-19T08:35:14;5;5;
78063;PMS5003;67429;51.596;-3.264;2023-02-19T08:37:40;4;4;
78063;PMS5003;67429;51.596;-3.264;2023-02-19T08:40:06;3;3;
78063;PMS5003;67429;51.596;-3.264;2023-02-19T08:42:31;5;5;
78063;PMS5003;67429;51.596;-3.264;2023-02-19T08:44:57;3;2;
78063;PMS5003;67429;51.596;-3.264;2023-02-19T08:47:22;6;6;
78063;PMS5003;67429;51.596;-3.264;2023-02-19T08:49:48;2;2;
78063;PMS5003;67429;51.596;-3.264;2023-02-19T08:52:13;3;3;
78063;PMS5003;67429;51.596;-3.264;2023-02-19T08:54:39;3;3;
78063;PMS5003;67429;51.596;-3.264;2023-02-19T08:57:04;2;2;
78063;PMS5003;67429;51.596;-3.264;2023-02-19T08:59:30;4;4;
78063;PMS5003;67429;51.596;-3.264;2023-02-19T09:01:57;2;2;
78063;PMS5003;67429;51.596;-3.264;2023-02-19T09:04:21;5;3;
78063;PMS5003;67429;51.596;-3.264;2023-02-19T09:06:47;5;4;
78063;PMS5003;67429;51.596;-3.264;2023-02-19T09:09:13;2;2;
78063;PMS5003;67429;51.596;-3.264;2023-02-19T09:11:38;4;3;
78063;PMS5003;67429;51.596;-3.264;2023-02-19T09:14:04;2;2;
78063;PMS5003;67429;51.596;-3.264;2023-02-19T09:16:30;4;3;
78063;PMS5003;67429;51.596;-3.264;2023-02-19T09:18:55;3;2;
78063;PMS5003;67429;51.596;-3.264;2023-02-19T09:21:21;2;2;
78063;PMS5003;67429;51.596;-3.264;2023-02-19T09:23:46;3;3;
78063;PMS5003;67429;51.596;-3.264;2023-02-19T09:26:12;2;2;
78063;PMS5003;67429;51.596;-3.264;2023-02-19T09:28:38;3;3;
78063;PMS5003;67429;51.596;-3.264;2023-02-19T09:31:03;4;3;
78063;PMS5003;67429;51.596;-3.264;2023-02-19T09:33:29;4;4;
78063;PMS5003;67429;51.596;-3.264;2023-02-19T09:35:57;3;3;
78063;PMS5003;67429;51.596;-3.264;2023-02-19T09:38:20;5;3;
78063;PMS5003;67429;51.596;-3.264;2023-02-19T09:40:46;3;3;
78063;PMS5003;67429;51.596;-3.264;2023-02-19T09:43:14;3;3;
78063;PMS5003;67429;51.596;-3.264;2023-02-19T09:45:37;4;4;
78063;PMS5003;67429;51.596;-3.264;2023-02-19T09:48:03;4;4;
78063;PMS5003;67429;51.596;-3.264;2023-02-19T09:50:30;4;4;
78063;PMS5003;67429;51.596;-3.264;2023-02-19T09:52:54;5;4;
78063;PMS5003;67429;51.596;-3.264;2023-02-19T09:55:22;4;4;
78063;PMS5003;67429;51.596;-3.264;2023-02-19T09:57:45;2;2;
78063;PMS5003;67429;51.596;-3.264;2023-02-19T10:00:18;4;3;
78063;PMS5003;67429;51.596;-3.264;2023-02-19T10:02:36;3;3;
78063;PMS5003;67429;51.596;-3.264;2023-02-19T10:05:02;2;2;
78063;PMS5003;67429;51.596;-3.264;2023-02-19T10:07:32;5;5;
78063;PMS5003;67429;51.596;-3.264;2023-02-19T10:09:54;2;2;
78063;PMS5003;67429;51.596;-3.264;2023-02-19T10:12:21;4;4;
78063;PMS5003;67429;51.596;-3.264;2023-02-19T10:14:45;6;4;
78063;PMS5003;67429;51.596;-3.264;2023-02-19T10:17:12;4;4;
78063;PMS5003;67429;51.596;-3.264;2023-02-19T10:19:35;6;5;
78063;PMS5003;67429;51.596;-3.264;2023-02-19T10:22:01;1;1;
78063;PMS5003;67429;51.596;-3.264;2023-02-19T10:24:27;2;2;
78063;PMS5003;67429;51.596;-3.264;2023-02-19T10:26:52;2;2;
78063;PMS5003;67429;51.596;-3.264;2023-02-19T10:29:17;2;2;
78063;PMS5003;67429;51.596;-3.264;2023-02-19T10:31:43;2;2;
78063;PMS5003;67429;51.596;-3.264;2023-02-19T10:34:16;3;3;
78063;PMS5003;67429;51.596;-3.264;2023-02-19T10:36:35;2;2;
78063;PMS5003;67429;51.596;-3.264;2023-02-19T10:39:00;2;2;
78063;PMS5003;67429;51.596;-3.264;2023-02-19T10:41:25;5;4;
78063;PMS5003;67429;51.596;-3.264;2023-02-19T10:43:51;2;2;
78063;PMS5003;67429;51.596;-3.264;2023-02-19T10:46:16;2;2;
78063;PMS5003;67429;51.596;-3.264;2023-02-19T10:48:43;2;2;
78063;PMS5003;67429;51.596;-3.264;2023-02-19T10:51:08;3;3;
78063;PMS5003;67429;51.596;-3.264;2023-02-19T10:53:41;4;3;
78063;PMS5003;67429;51.596;-3.264;2023-02-19T10:58:24;2;2;
78063;PMS5003;67429;51.596;-3.264;2023-02-19T11:03:18;1;1;
78063;PMS5003;67429;51.596;-3.264;2023-02-19T11:10:37;0;0;
78063;PMS5003;67429;51.596;-3.264;2023-02-19T11:12:58;1;1;
78063;PMS5003;67429;51.596;-3.264;2023-02-19T11:15:24;3;3;
78063;PMS5003;67429;51.596;-3.264;2023-02-19T11:20:14;2;2;
78063;PMS5003;67429;51.596;-3.264;2023-02-19T11:22:39;2;2;
78063;PMS5003;67429;51.596;-3.264;2023-02-19T11:25:05;1;1;
78063;PMS5003;67429;51.596;-3.264;2023-02-19T11:27:29;1;1;
78063;PMS5003;67429;51.596;-3.264;2023-02-19T11:29:55;1;1;
78063;PMS5003;67429;51.596;-3.264;2023-02-19T11:32:25;1;1;
78063;PMS5003;67429;51.596;-3.264;2023-02-19T11:34:46;2;2;
78063;PMS5003;67429;51.596;-3.264;2023-02-19T11:37:12;1;1;
78063;PMS5003;67429;51.596;-3.264;2023-02-19T11:39:37;3;3;
78063;PMS5003;67429;51.596;-3.264;2023-02-19T11:42:09;3;3;
78063;PMS5003;67429;51.596;-3.264;2023-02-19T11:44:31;2;2;
78063;PMS5003;67429;51.596;-3.264;2023-02-19T11:46:56;1;1;
78063;PMS5003;67429;51.596;-3.264;2023-02-19T11:49:22;2;2;
78063;PMS5003;67429;51.596;-3.264;2023-02-19T11:51:51;1;1;
78063;PMS5003;67429;51.596;-3.264;2023-02-19T11:54:15;1;1;
78063;PMS5003;67429;51.596;-3.264;2023-02-19T11:56:36;1;1;
78063;PMS5003;67429;51.596;-3.264;2023-02-19T11:59:02;0;0;
78063;PMS5003;67429;51.596;-3.264;2023-02-19T12:01:32;0;0;
78063;PMS5003;67429;51.596;-3.264;2023-02-19T12:03:55;2;2;
78063;PMS5003;67429;51.596;-3.264;2023-02-19T12:06:18;1;1;
78063;PMS5003;67429;51.596;-3.264;2023-02-19T12:08:47;2;2;
78063;PMS5003;67429;51.596;-3.264;2023-02-19T12:11:17;2;2;
78063;PMS5003;67429;51.596;-3.264;2023-02-19T12:13:37;0;0;
78063;PMS5003;67429;51.596;-3.264;2023-02-19T12:16:03;1;1;
78063;PMS5003;67429;51.596;-3.264;2023-02-19T12:18:29;2;1;
78063;PMS5003;67429;51.596;-3.264;2023-02-19T12:20:53;3;2;
78063;PMS5003;67429;51.596;-3.264;2023-02-19T12:25:45;2;1;
78063;PMS5003;67429;51.596;-3.264;2023-02-19T12:30:36;4;3;
78063;PMS5003;67429;51.596;-3.264;2023-02-19T12:33:02;1;1;
78063;PMS5003;67429;51.596;-3.264;2023-02-19T12:35:26;3;3;
78063;PMS5003;67429;51.596;-3.264;2023-02-19T12:37:51;3;3;
78063;PMS5003;67429;51.596;-3.264;2023-02-19T12:40:18;3;3;
78063;PMS5003;67429;51.596;-3.264;2023-02-19T12:42:44;1;1;
78063;PMS5003;67429;51.596;-3.264;2023-02-19T12:45:06;2;2;
78063;PMS5003;67429;51.596;-3.264;2023-02-19T12:47:32;3;3;
78063;PMS5003;67429;51.596;-3.264;2023-02-19T12:49:58;2;2;
78063;PMS5003;67429;51.596;-3.264;2023-02-19T12:52:22;3;3;
78063;PMS5003;67429;51.596;-3.264;2023-02-19T12:54:49;5;5;
78063;PMS5003;67429;51.596;-3.264;2023-02-19T12:57:14;3;3;
78063;PMS5003;67429;51.596;-3.264;2023-02-19T12:59:40;4;4;
78063;PMS5003;67429;51.596;-3.264;2023-02-19T13:02:09;5;5;
78063;PMS5003;67429;51.596;-3.264;2023-02-19T13:04:32;8;8;
78063;PMS5003;67429;51.596;-3.264;2023-02-19T13:06:56;9;8;
78063;PMS5003;67429;51.596;-3.264;2023-02-19T13:09:22;10;9;
78063;PMS5003;67429;51.596;-3.264;2023-02-19T13:11:47;7;7;
78063;PMS5003;67429;51.596;-3.264;2023-02-19T13:14:14;11;11;
78063;PMS5003;67429;51.596;-3.264;2023-02-19T13:16:38;13;13;
78063;PMS5003;67429;51.596;-3.264;2023-02-19T13:19:03;13;13;
78063;PMS5003;67429;51.596;-3.264;2023-02-19T13:21:29;16;16;
78063;PMS5003;67429;51.596;-3.264;2023-02-19T13:23:54;17;17;
78063;PMS5003;67429;51.596;-3.264;2023-02-19T13:26:23;17;17;
78063;PMS5003;67429;51.596;-3.264;2023-02-19T13:28:50;18;17;
78063;PMS5003;67429;51.596;-3.264;2023-02-19T13:31:15;15;15;
78063;PMS5003;67429;51.596;-3.264;2023-02-19T13:33:38;14;14;
78063;PMS5003;67429;51.596;-3.264;2023-02-19T13:36:04;16;15;
78063;PMS5003;67429;51.596;-3.264;2023-02-19T13:38:27;19;19;
78063;PMS5003;67429;51.596;-3.264;2023-02-19T13:40:53;19;17;
78063;PMS5003;67429;51.596;-3.264;2023-02-19T13:43:21;18;18;
78063;PMS5003;67429;51.596;-3.264;2023-02-19T13:45:43;16;16;
78063;PMS5003;67429;51.596;-3.264;2023-02-19T13:48:13;17;17;
78063;PMS5003;67429;51.596;-3.264;2023-02-19T13:50:34;16;15;
78063;PMS5003;67429;51.596;-3.264;2023-02-19T13:53:01;12;12;
78063;PMS5003;67429;51.596;-3.264;2023-02-19T13:57:51;11;11;
78063;PMS5003;67429;51.596;-3.264;2023-02-19T14:02:42;11;10;
78063;PMS5003;67429;51.596;-3.264;2023-02-19T14:05:08;11;10;
78063;PMS5003;67429;51.596;-3.264;2023-02-19T14:07:36;11;11;
78063;PMS5003;67429;51.596;-3.264;2023-02-19T14:09:58;14;13;
78063;PMS5003;67429;51.596;-3.264;2023-02-19T14:14:50;13;12;
78063;PMS5003;67429;51.596;-3.264;2023-02-19T14:17:24;14;14;
78063;PMS5003;67429;51.596;-3.264;2023-02-19T14:19:43;13;13;
78063;PMS5003;67429;51.596;-3.264;2023-02-19T14:24:31;20;19;
78063;PMS5003;67429;51.596;-3.264;2023-02-19T14:26:57;22;22;
78063;PMS5003;67429;51.596;-3.264;2023-02-19T14:29:23;20;19;
78063;PMS5003;67429;51.596;-3.264;2023-02-19T14:31:48;18;18;
78063;PMS5003;67429;51.596;-3.264;2023-02-19T14:34:14;19;18;
78063;PMS5003;67429;51.596;-3.264;2023-02-19T14:36:41;18;16;
78063;PMS5003;67429;51.596;-3.264;2023-02-19T14:39:05;19;18;
78063;PMS5003;67429;51.596;-3.264;2023-02-19T14:41:31;20;19;
78063;PMS5003;67429;51.596;-3.264;2023-02-19T14:43:55;18;18;
78063;PMS5003;67429;51.596;-3.264;2023-02-19T14:46:23;20;19;
78063;PMS5003;67429;51.596;-3.264;2023-02-19T14:48:47;20;19;
78063;PMS5003;67429;51.596;-3.264;2023-02-19T14:51:12;24;23;
78063;PMS5003;67429;51.596;-3.264;2023-02-19T14:53:38;18;18;
78063;PMS5003;67429;51.596;-3.264;2023-02-19T14:56:03;15;13;
78063;PMS5003;67429;51.596;-3.264;2023-02-19T14:58:29;14;14;
78063;PMS5003;67429;51.596;-3.264;2023-02-19T15:00:54;11;11;
78063;PMS5003;67429;51.596;-3.264;2023-02-19T15:03:24;16;14;
78063;PMS5003;67429;51.596;-3.264;2023-02-19T15:05:45;15;15;
78063;PMS5003;67429;51.596;-3.264;2023-02-19T15:08:11;20;20;
78063;PMS5003;67429;51.596;-3.264;2023-02-19T15:10:36;17;17;
78063;PMS5003;67429;51.596;-3.264;2023-02-19T15:13:02;19;18;
78063;PMS5003;67429;51.596;-3.264;2023-02-19T15:15:27;16;16;
78063;PMS5003;67429;51.596;-3.264;2023-02-19T15:17:52;16;15;
78063;PMS5003;67429;51.596;-3.264;2023-02-19T15:20:18;15;15;
78063;PMS5003;67429;51.596;-3.264;2023-02-19T15:22:44;15;15;
78063;PMS5003;67429;51.596;-3.264;2023-02-19T15:25:10;18;18;
78063;PMS5003;67429;51.596;-3.264;2023-02-19T15:27:34;11;11;
78063;PMS5003;67429;51.596;-3.264;2023-02-19T15:30:00;15;15;
78063;PMS5003;67429;51.596;-3.264;2023-02-19T15:32:26;18;18;
78063;PMS5003;67429;51.596;-3.264;2023-02-19T15:34:52;15;14;
78063;PMS5003;67429;51.596;-3.264;2023-02-19T15:37:16;14;14;
78063;PMS5003;67429;51.596;-3.264;2023-02-19T15:39:43;13;13;
78063;PMS5003;67429;51.596;-3.264;2023-02-19T15:42:08;22;21;
78063;PMS5003;67429;51.596;-3.264;2023-02-19T15:44:35;15;15;
78063;PMS5003;67429;51.596;-3.264;2023-02-19T15:47:01;15;14;
78063;PMS5003;67429;51.596;-3.264;2023-02-19T15:49:25;12;11;
78063;PMS5003;67429;51.596;-3.264;2023-02-19T15:51:50;9;9;
78063;PMS5003;67429;51.596;-3.264;2023-02-19T15:54:16;16;16;
78063;PMS5003;67429;51.596;-3.264;2023-02-19T15:56:42;17;17;
78063;PMS5003;67429;51.596;-3.264;2023-02-19T15:59:10;19;19;
78063;PMS5003;67429;51.596;-3.264;2023-02-19T16:01:32;10;10;
78063;PMS5003;67429;51.596;-3.264;2023-02-19T16:03:57;17;17;
78063;PMS5003;67429;51.596;-3.264;2023-02-19T16:06:23;26;23;
78063;PMS5003;67429;51.596;-3.264;2023-02-19T16:11:24;17;16;
78063;PMS5003;67429;51.596;-3.264;2023-02-19T16:13:39;9;9;
78063;PMS5003;67429;51.596;-3.264;2023-02-19T16:16:09;15;13;
78063;PMS5003;67429;51.596;-3.264;2023-02-19T16:22:43;50;50;
78063;PMS5003;67429;51.596;-3.264;2023-02-19T16:32:05;53;50;
78063;PMS5003;67429;51.596;-3.264;2023-02-19T16:34:30;50;48;
78063;PMS5003;67429;51.596;-3.264;2023-02-19T16:36:57;45;42;
78063;PMS5003;67429;51.596;-3.264;2023-02-19T16:39:25;40;38;
78063;PMS5003;67429;51.596;-3.264;2023-02-19T16:47:36;10;10;
78063;PMS5003;67429;51.596;-3.264;2023-02-19T16:50:02;11;11;
78063;PMS5003;67429;51.596;-3.264;2023-02-19T16:52:27;9;7;
78063;PMS5003;67429;51.596;-3.264;2023-02-19T16:54:53;6;6;
78063;PMS5003;67429;51.596;-3.264;2023-02-19T16:57:18;5;5;
78063;PMS5003;67429;51.596;-3.264;2023-02-19T16:59:44;7;7;
78063;PMS5003;67429;51.596;-3.264;2023-02-19T17:02:13;9;7;
78063;PMS5003;67429;51.596;-3.264;2023-02-19T17:04:35;7;7;
78063;PMS5003;67429;51.596;-3.264;2023-02-19T17:07:01;5;5;
78063;PMS5003;67429;51.596;-3.264;2023-02-19T17:09:26;10;9;
78063;PMS5003;67429;51.596;-3.264;2023-02-19T17:11:52;9;9;